Fayette City, Pennsylvania
Current Conditions -  °F | °C
As of 3:53 AM on Sunday 21 Dec 2014 (Local Time) from KAGC Reporting Station
Overcast Overcast  
Wind Chill: 28°   Ceiling: 5500
Heat Index: 28°   Visibility: 9mi
Dew Point: 18°   Wind: 0mph
Humidity: 66%   Direction: NA
Pressure: 30.26"   Gusts: NA
Location:  40.1°N, 79.84°W
Report Text: KAGC 210853Z 00000KT 9SM FEW028 OVC055 M02/M08 A3026 RMK AO2 SLP266 T10221078 53006
Loading
Personal Weather Stations






























Interactive Weather Map New forecast layout! Learn more

10-Day Weather Forecast

Advertisements
Track Severe Weather on mobile